Аэропорт: Петропавловск. Петропавловск

ICAO: UACP

METAR:
2021-01-19 11:30:00
UACP 191130Z 12002MPS CAVOK M24/M26 Q1022 R23/8/1048 NOSIG RMK QFE754/1005
METAR:
2021-01-19 08:01:00
TAF UACP 190801Z 1909/1918 VRB02MPS 9999 SCT040 TEMPO 1915/1918 4000 BR